Otsego, MI (49078)

12:16 PM EST on February 10, 2016 (GMT -0500)
West Otsego | | Change Station
CLOSE
Current Station
Personal Weather Station
Location: Otsego, MI
Elevation: 722 ft
Nearby Weather Stations

Elev 722 ft 42.46 °N, 85.71 °W | Updated 1 minute ago

Snow
Snow
22.1 °F
Feels Like 22 °F
N
0.0
Wind Variable Wind from North

Today
High -- | Low -- °F
--% Chance of Precip.
Yesterday
High -- | Low -- °F
Precip. -- in
Pressure 29.94 in
Visibility 9.0 miles
Clouds Mostly Cloudy 1600 ft
Mostly Cloudy 6000 ft
Windchill 22 °F
Dew Point 16 °F
Humidity 77%
Rainfall 0.00 in
Snow Depth Not available.
7:46 AM 6:07 PM
Waxing Crescent, 6% visible
METAR KAZO 101653Z 33014G21KT 9SM UP BKN016 BKN060 M07/M12 A2990 RMK AO2 UPB52SNB01E52 SLP139 VIS 1V3 P0000 T10721122
Pressure 29.94 in
Visibility 9.0 miles
Clouds Mostly Cloudy 1600 ft
Mostly Cloudy 6000 ft
Windchill 22 °F
Dew Point 16 °F
Humidity 77%
Rainfall 0.00 in
Snow Depth Not available.
7:46 AM 6:07 PM
Waxing Crescent, 6% visible
METAR KAZO 101653Z 33014G21KT 9SM UP BKN016 BKN060 M07/M12 A2990 RMK AO2 UPB52SNB01E52 SLP139 VIS 1V3 P0000 T10721122

10-Day Weather Forecast

Almanac

Astronomy

Feb. 10, 2016 Rise Set
Actual Time
Civil Twilight
Nautical Twilight
Astronomical Twilight
Moon
Length of Visible Light
Length of Day
Tomorrow will be .
, % of the Moon is Illuminated

Today's Extremes

State Highs State Lows

Community

WunderPhotos

Upload Photos

1,891,893 photos uploaded!

WunderBlog® & News

Nearby

Air Quality

  Air Quality AQ Index Pollutant
Not available.

Snow Depth

Station Depth Elevation

Earthquake Activity

City Distance Mag. Time & Date
Minimum magnitude displayed is 2.5.

Coastal Water Temperatures

Place Temperature

Stations

Nearby Weather Stations

Station Location Temp. Windchill Dew Point Humidity Wind Precip. Elev Updated Type
                   

Watches & Warnings

Winter Storm Warning
Issued: 9:45 AM EST Feb. 10, 2016 – National Weather Service

... Winter Storm Warning remains in effect until 10 am EST
Thursday...

Hazardous weather...

* snow showers overnight... diminishing early Thursday.

* Snow heavy at times... snow rates an inch per hour.

* 6 inches or more additional snow today and tonight... totals 8
   to 15 inches... localized higher amounts.

* Gusty winds from the northwest producing periods of near zero
   visibility. Winds diminishing this evening.

Impacts...

* roads will be snow covered and slippery.

* Travel slowdowns and a risk for multiple vehicle pileups.

Precautionary/preparedness actions...

* the Michigan Department of Transportation reminds motorists
   to adjust speeds based on the conditions... and to take it
   slow in ice and snow.

* Weather preparedness information is available on line at
   www.Ready.Gov/winter and http://go.USA.Gov/5og.